sensor_id;sensor_type;location;lat;lon;timestamp;P1;durP1;ratioP1;P2;durP2;ratioP2
46447;SDS011;32145;50.390;30.778;2024-01-15T00:00:14;17.95;;;9.30;;
46447;SDS011;32145;50.390;30.778;2024-01-15T00:03:08;23.00;;;11.60;;
46447;SDS011;32145;50.390;30.778;2024-01-15T00:06:03;18.08;;;9.30;;
46447;SDS011;32145;50.390;30.778;2024-01-15T00:08:57;25.73;;;13.75;;
46447;SDS011;32145;50.390;30.778;2024-01-15T00:11:52;22.17;;;11.88;;
46447;SDS011;32145;50.390;30.778;2024-01-15T00:14:48;21.40;;;12.65;;
46447;SDS011;32145;50.390;30.778;2024-01-15T00:17:45;21.75;;;11.68;;
46447;SDS011;32145;50.390;30.778;2024-01-15T00:20:40;24.13;;;13.93;;
46447;SDS011;32145;50.390;30.778;2024-01-15T00:23:34;23.65;;;13.05;;
46447;SDS011;32145;50.390;30.778;2024-01-15T00:26:28;26.45;;;12.73;;
46447;SDS011;32145;50.390;30.778;2024-01-15T00:29:22;19.02;;;11.02;;
46447;SDS011;32145;50.390;30.778;2024-01-15T00:32:19;20.45;;;10.13;;
46447;SDS011;32145;50.390;30.778;2024-01-15T00:35:16;17.58;;;11.15;;
46447;SDS011;32145;50.390;30.778;2024-01-15T00:38:13;20.10;;;11.55;;
46447;SDS011;32145;50.390;30.778;2024-01-15T00:41:09;20.23;;;11.23;;
46447;SDS011;32145;50.390;30.778;2024-01-15T00:44:05;15.20;;;9.07;;
46447;SDS011;32145;50.390;30.778;2024-01-15T00:46:59;17.33;;;10.00;;
46447;SDS011;32145;50.390;30.778;2024-01-15T00:49:54;20.58;;;11.57;;
46447;SDS011;32145;50.390;30.778;2024-01-15T00:52:49;19.02;;;10.43;;
46447;SDS011;32145;50.390;30.778;2024-01-15T00:55:43;21.02;;;11.98;;
46447;SDS011;32145;50.390;30.778;2024-01-15T00:58:38;17.85;;;10.57;;
46447;SDS011;32145;50.390;30.778;2024-01-15T01:01:32;21.98;;;11.85;;
46447;SDS011;32145;50.390;30.778;2024-01-15T01:04:26;22.40;;;12.52;;
46447;SDS011;32145;50.390;30.778;2024-01-15T01:07:20;20.73;;;12.00;;
46447;SDS011;32145;50.390;30.778;2024-01-15T01:10:16;19.85;;;12.05;;
46447;SDS011;32145;50.390;30.778;2024-01-15T01:13:10;18.13;;;9.98;;
46447;SDS011;32145;50.390;30.778;2024-01-15T01:16:05;20.58;;;12.40;;
46447;SDS011;32145;50.390;30.778;2024-01-15T01:18:59;21.02;;;12.20;;
46447;SDS011;32145;50.390;30.778;2024-01-15T01:21:53;21.48;;;12.02;;
46447;SDS011;32145;50.390;30.778;2024-01-15T01:24:50;19.85;;;12.07;;
46447;SDS011;32145;50.390;30.778;2024-01-15T01:27:47;20.33;;;11.95;;
46447;SDS011;32145;50.390;30.778;2024-01-15T01:30:44;19.45;;;10.10;;
46447;SDS011;32145;50.390;30.778;2024-01-15T01:33:40;20.20;;;12.23;;
46447;SDS011;32145;50.390;30.778;2024-01-15T01:36:36;21.88;;;12.90;;
46447;SDS011;32145;50.390;30.778;2024-01-15T01:39:32;21.60;;;11.85;;
46447;SDS011;32145;50.390;30.778;2024-01-15T01:42:28;18.58;;;10.32;;
46447;SDS011;32145;50.390;30.778;2024-01-15T01:45:26;18.05;;;11.15;;
46447;SDS011;32145;50.390;30.778;2024-01-15T01:48:23;20.85;;;12.05;;
46447;SDS011;32145;50.390;30.778;2024-01-15T01:51:20;23.08;;;13.23;;
46447;SDS011;32145;50.390;30.778;2024-01-15T01:54:18;18.70;;;10.85;;
46447;SDS011;32145;50.390;30.778;2024-01-15T01:57:15;24.58;;;13.80;;
46447;SDS011;32145;50.390;30.778;2024-01-15T02:00:12;19.70;;;11.10;;
46447;SDS011;32145;50.390;30.778;2024-01-15T02:03:08;19.15;;;10.32;;
46447;SDS011;32145;50.390;30.778;2024-01-15T02:06:03;19.70;;;12.10;;
46447;SDS011;32145;50.390;30.778;2024-01-15T02:08:58;32.28;;;19.73;;
46447;SDS011;32145;50.390;30.778;2024-01-15T02:11:53;24.33;;;13.07;;
46447;SDS011;32145;50.390;30.778;2024-01-15T02:14:47;23.88;;;12.68;;
46447;SDS011;32145;50.390;30.778;2024-01-15T02:17:58;19.25;;;11.82;;
46447;SDS011;32145;50.390;30.778;2024-01-15T02:20:55;20.45;;;11.70;;
46447;SDS011;32145;50.390;30.778;2024-01-15T02:23:51;19.17;;;11.25;;
46447;SDS011;32145;50.390;30.778;2024-01-15T02:26:45;18.75;;;11.15;;
46447;SDS011;32145;50.390;30.778;2024-01-15T02:29:40;35.22;;;19.77;;
46447;SDS011;32145;50.390;30.778;2024-01-15T02:32:34;23.95;;;12.82;;
46447;SDS011;32145;50.390;30.778;2024-01-15T02:35:30;20.10;;;10.38;;
46447;SDS011;32145;50.390;30.778;2024-01-15T02:38:26;18.48;;;10.38;;
46447;SDS011;32145;50.390;30.778;2024-01-15T02:41:22;18.00;;;10.70;;
46447;SDS011;32145;50.390;30.778;2024-01-15T02:44:17;17.50;;;10.18;;
46447;SDS011;32145;50.390;30.778;2024-01-15T02:47:11;21.98;;;11.68;;
46447;SDS011;32145;50.390;30.778;2024-01-15T02:50:05;20.63;;;12.02;;
46447;SDS011;32145;50.390;30.778;2024-01-15T02:53:00;20.70;;;10.93;;
46447;SDS011;32145;50.390;30.778;2024-01-15T02:55:54;17.30;;;10.30;;
46447;SDS011;32145;50.390;30.778;2024-01-15T02:58:52;18.85;;;11.02;;
46447;SDS011;32145;50.390;30.778;2024-01-15T03:01:48;19.00;;;10.80;;
46447;SDS011;32145;50.390;30.778;2024-01-15T03:04:45;20.17;;;10.80;;
46447;SDS011;32145;50.390;30.778;2024-01-15T03:07:41;19.05;;;10.65;;
46447;SDS011;32145;50.390;30.778;2024-01-15T03:10:37;20.38;;;10.38;;
46447;SDS011;32145;50.390;30.778;2024-01-15T03:13:35;17.30;;;10.05;;
46447;SDS011;32145;50.390;30.778;2024-01-15T03:16:33;16.85;;;9.80;;
46447;SDS011;32145;50.390;30.778;2024-01-15T03:19:29;18.45;;;10.05;;
46447;SDS011;32145;50.390;30.778;2024-01-15T03:22:25;17.02;;;9.88;;
46447;SDS011;32145;50.390;30.778;2024-01-15T03:25:21;20.60;;;11.68;;
46447;SDS011;32145;50.390;30.778;2024-01-15T03:28:18;19.38;;;9.77;;
46447;SDS011;32145;50.390;30.778;2024-01-15T03:31:14;16.42;;;9.73;;
46447;SDS011;32145;50.390;30.778;2024-01-15T03:34:12;14.43;;;8.68;;
46447;SDS011;32145;50.390;30.778;2024-01-15T03:37:08;18.67;;;10.00;;
46447;SDS011;32145;50.390;30.778;2024-01-15T03:40:05;16.10;;;9.50;;
46447;SDS011;32145;50.390;30.778;2024-01-15T03:43:02;17.17;;;9.45;;
46447;SDS011;32145;50.390;30.778;2024-01-15T03:45:58;22.25;;;11.85;;
46447;SDS011;32145;50.390;30.778;2024-01-15T03:48:54;25.55;;;10.93;;
46447;SDS011;32145;50.390;30.778;2024-01-15T03:51:52;17.83;;;10.77;;
46447;SDS011;32145;50.390;30.778;2024-01-15T03:54:49;19.23;;;10.85;;
46447;SDS011;32145;50.390;30.778;2024-01-15T03:57:45;16.52;;;8.52;;
46447;SDS011;32145;50.390;30.778;2024-01-15T04:00:41;15.70;;;9.57;;
46447;SDS011;32145;50.390;30.778;2024-01-15T04:03:38;17.15;;;9.98;;
46447;SDS011;32145;50.390;30.778;2024-01-15T04:06:34;25.10;;;9.07;;
46447;SDS011;32145;50.390;30.778;2024-01-15T04:09:32;19.08;;;10.15;;
46447;SDS011;32145;50.390;30.778;2024-01-15T04:12:28;17.95;;;9.63;;
46447;SDS011;32145;50.390;30.778;2024-01-15T04:15:24;20.90;;;10.32;;
46447;SDS011;32145;50.390;30.778;2024-01-15T04:18:21;19.77;;;10.43;;
46447;SDS011;32145;50.390;30.778;2024-01-15T04:21:17;42.92;;;20.52;;
46447;SDS011;32145;50.390;30.778;2024-01-15T04:24:11;24.67;;;11.98;;
46447;SDS011;32145;50.390;30.778;2024-01-15T04:27:07;23.38;;;11.68;;
46447;SDS011;32145;50.390;30.778;2024-01-15T04:30:04;17.98;;;9.77;;
46447;SDS011;32145;50.390;30.778;2024-01-15T04:33:01;20.17;;;10.70;;
46447;SDS011;32145;50.390;30.778;2024-01-15T04:36:01;20.20;;;9.95;;
46447;SDS011;32145;50.390;30.778;2024-01-15T04:38:55;18.27;;;10.95;;
46447;SDS011;32145;50.390;30.778;2024-01-15T04:41:51;21.45;;;10.35;;
46447;SDS011;32145;50.390;30.778;2024-01-15T04:44:49;18.02;;;9.68;;
46447;SDS011;32145;50.390;30.778;2024-01-15T04:47:43;18.70;;;9.00;;
46447;SDS011;32145;50.390;30.778;2024-01-15T04:50:38;19.50;;;9.43;;
46447;SDS011;32145;50.390;30.778;2024-01-15T04:53:32;21.98;;;9.57;;
46447;SDS011;32145;50.390;30.778;2024-01-15T04:56:28;22.90;;;10.80;;
46447;SDS011;32145;50.390;30.778;2024-01-15T04:59:22;16.52;;;7.85;;
46447;SDS011;32145;50.390;30.778;2024-01-15T05:02:18;19.95;;;8.98;;
46447;SDS011;32145;50.390;30.778;2024-01-15T05:05:12;17.90;;;8.80;;
46447;SDS011;32145;50.390;30.778;2024-01-15T05:08:07;17.98;;;9.20;;
46447;SDS011;32145;50.390;30.778;2024-01-15T05:11:01;18.25;;;10.27;;
46447;SDS011;32145;50.390;30.778;2024-01-15T05:13:55;18.77;;;10.05;;
46447;SDS011;32145;50.390;30.778;2024-01-15T05:16:51;19.42;;;9.95;;
46447;SDS011;32145;50.390;30.778;2024-01-15T05:19:49;18.73;;;9.52;;
46447;SDS011;32145;50.390;30.778;2024-01-15T05:22:43;18.10;;;9.70;;
46447;SDS011;32145;50.390;30.778;2024-01-15T05:25:38;16.58;;;9.05;;
46447;SDS011;32145;50.390;30.778;2024-01-15T05:28:32;16.90;;;9.85;;
46447;SDS011;32145;50.390;30.778;2024-01-15T05:31:26;18.42;;;9.73;;
46447;SDS011;32145;50.390;30.778;2024-01-15T05:34:22;19.25;;;10.13;;
46447;SDS011;32145;50.390;30.778;2024-01-15T05:37:20;20.88;;;9.27;;
46447;SDS011;32145;50.390;30.778;2024-01-15T05:40:15;20.65;;;10.32;;
46447;SDS011;32145;50.390;30.778;2024-01-15T05:43:09;22.02;;;11.20;;
46447;SDS011;32145;50.390;30.778;2024-01-15T05:46:03;23.42;;;10.60;;
46447;SDS011;32145;50.390;30.778;2024-01-15T05:48:57;20.63;;;10.20;;
46447;SDS011;32145;50.390;30.778;2024-01-15T05:51:52;20.70;;;9.27;;
46447;SDS011;32145;50.390;30.778;2024-01-15T05:54:47;16.88;;;8.85;;
46447;SDS011;32145;50.390;30.778;2024-01-15T05:57:44;19.38;;;8.43;;
46447;SDS011;32145;50.390;30.778;2024-01-15T06:00:40;19.08;;;9.50;;
46447;SDS011;32145;50.390;30.778;2024-01-15T06:03:36;17.75;;;8.45;;
46447;SDS011;32145;50.390;30.778;2024-01-15T06:06:33;22.15;;;9.13;;
46447;SDS011;32145;50.390;30.778;2024-01-15T06:09:29;18.40;;;9.15;;
46447;SDS011;32145;50.390;30.778;2024-01-15T06:12:27;18.50;;;9.38;;
46447;SDS011;32145;50.390;30.778;2024-01-15T06:15:23;14.35;;;8.57;;
46447;SDS011;32145;50.390;30.778;2024-01-15T06:18:20;17.75;;;8.57;;
46447;SDS011;32145;50.390;30.778;2024-01-15T06:21:16;20.13;;;8.98;;
46447;SDS011;32145;50.390;30.778;2024-01-15T06:24:12;28.77;;;15.25;;
46447;SDS011;32145;50.390;30.778;2024-01-15T06:27:08;19.52;;;9.95;;
46447;SDS011;32145;50.390;30.778;2024-01-15T06:30:07;15.45;;;8.93;;
46447;SDS011;32145;50.390;30.778;2024-01-15T06:36:00;14.80;;;8.23;;
46447;SDS011;32145;50.390;30.778;2024-01-15T06:38:56;13.90;;;7.50;;
46447;SDS011;32145;50.390;30.778;2024-01-15T06:41:52;14.02;;;8.13;;
46447;SDS011;32145;50.390;30.778;2024-01-15T06:44:49;12.30;;;7.15;;
46447;SDS011;32145;50.390;30.778;2024-01-15T06:47:44;21.08;;;10.80;;
46447;SDS011;32145;50.390;30.778;2024-01-15T06:50:38;13.80;;;7.43;;
46447;SDS011;32145;50.390;30.778;2024-01-15T06:53:33;14.43;;;7.88;;
46447;SDS011;32145;50.390;30.778;2024-01-15T06:56:27;17.73;;;8.30;;
46447;SDS011;32145;50.390;30.778;2024-01-15T06:59:23;12.60;;;7.30;;
46447;SDS011;32145;50.390;30.778;2024-01-15T07:02:19;13.73;;;7.30;;
46447;SDS011;32145;50.390;30.778;2024-01-15T07:05:15;15.73;;;7.70;;
46447;SDS011;32145;50.390;30.778;2024-01-15T07:08:09;20.02;;;11.00;;
46447;SDS011;32145;50.390;30.778;2024-01-15T07:11:04;15.23;;;8.63;;
46447;SDS011;32145;50.390;30.778;2024-01-15T07:13:59;20.00;;;9.35;;
46447;SDS011;32145;50.390;30.778;2024-01-15T07:16:53;13.77;;;7.70;;
46447;SDS011;32145;50.390;30.778;2024-01-15T07:19:48;20.13;;;9.40;;
46447;SDS011;32145;50.390;30.778;2024-01-15T07:22:45;17.33;;;9.27;;
46447;SDS011;32145;50.390;30.778;2024-01-15T07:25:42;15.32;;;8.57;;
46447;SDS011;32145;50.390;30.778;2024-01-15T07:28:39;14.68;;;8.65;;
46447;SDS011;32145;50.390;30.778;2024-01-15T07:31:33;19.02;;;9.30;;
46447;SDS011;32145;50.390;30.778;2024-01-15T07:34:27;15.98;;;8.82;;
46447;SDS011;32145;50.390;30.778;2024-01-15T07:37:23;19.38;;;9.02;;
46447;SDS011;32145;50.390;30.778;2024-01-15T07:40:21;17.15;;;9.10;;
46447;SDS011;32145;50.390;30.778;2024-01-15T07:43:17;13.98;;;8.13;;
46447;SDS011;32145;50.390;30.778;2024-01-15T07:46:14;15.57;;;8.10;;
46447;SDS011;32145;50.390;30.778;2024-01-15T07:49:10;16.73;;;8.50;;
46447;SDS011;32145;50.390;30.778;2024-01-15T07:52:04;16.17;;;9.05;;
46447;SDS011;32145;50.390;30.778;2024-01-15T07:54:58;19.10;;;9.88;;
46447;SDS011;32145;50.390;30.778;2024-01-15T07:57:56;21.10;;;9.65;;
46447;SDS011;32145;50.390;30.778;2024-01-15T08:00:53;19.52;;;9.45;;
46447;SDS011;32145;50.390;30.778;2024-01-15T08:03:49;15.73;;;8.85;;
46447;SDS011;32145;50.390;30.778;2024-01-15T08:06:45;15.77;;;8.35;;
46447;SDS011;32145;50.390;30.778;2024-01-15T08:09:42;25.02;;;10.50;;
46447;SDS011;32145;50.390;30.778;2024-01-15T08:12:38;19.35;;;9.68;;
46447;SDS011;32145;50.390;30.778;2024-01-15T08:15:36;17.08;;;8.82;;
46447;SDS011;32145;50.390;30.778;2024-01-15T08:18:32;16.90;;;8.23;;
46447;SDS011;32145;50.390;30.778;2024-01-15T08:21:28;14.60;;;8.20;;
46447;SDS011;32145;50.390;30.778;2024-01-15T08:24:25;13.93;;;7.28;;
46447;SDS011;32145;50.390;30.778;2024-01-15T08:27:21;13.05;;;7.78;;
46447;SDS011;32145;50.390;30.778;2024-01-15T08:30:18;11.40;;;6.75;;
46447;SDS011;32145;50.390;30.778;2024-01-15T08:33:16;12.30;;;7.13;;
46447;SDS011;32145;50.390;30.778;2024-01-15T08:36:12;16.35;;;8.35;;
46447;SDS011;32145;50.390;30.778;2024-01-15T08:39:09;16.55;;;7.72;;
46447;SDS011;32145;50.390;30.778;2024-01-15T08:42:05;13.25;;;7.07;;
46447;SDS011;32145;50.390;30.778;2024-01-15T08:45:01;13.75;;;7.93;;
46447;SDS011;32145;50.390;30.778;2024-01-15T08:47:58;12.50;;;6.85;;
46447;SDS011;32145;50.390;30.778;2024-01-15T08:50:55;14.55;;;7.38;;
46447;SDS011;32145;50.390;30.778;2024-01-15T08:53:52;13.75;;;7.00;;
46447;SDS011;32145;50.390;30.778;2024-01-15T08:56:48;13.85;;;7.50;;
46447;SDS011;32145;50.390;30.778;2024-01-15T08:59:42;18.65;;;7.85;;
46447;SDS011;32145;50.390;30.778;2024-01-15T09:02:37;18.10;;;8.38;;
46447;SDS011;32145;50.390;30.778;2024-01-15T09:05:31;15.88;;;7.20;;
46447;SDS011;32145;50.390;30.778;2024-01-15T09:08:26;13.48;;;6.85;;
46447;SDS011;32145;50.390;30.778;2024-01-15T09:11:21;11.45;;;6.50;;
46447;SDS011;32145;50.390;30.778;2024-01-15T09:14:15;13.57;;;7.28;;
46447;SDS011;32145;50.390;30.778;2024-01-15T09:17:10;14.40;;;6.82;;
46447;SDS011;32145;50.390;30.778;2024-01-15T09:20:04;15.95;;;7.40;;
46447;SDS011;32145;50.390;30.778;2024-01-15T09:22:59;14.65;;;7.30;;
46447;SDS011;32145;50.390;30.778;2024-01-15T09:25:57;14.02;;;7.05;;
46447;SDS011;32145;50.390;30.778;2024-01-15T09:28:54;14.80;;;6.68;;
46447;SDS011;32145;50.390;30.778;2024-01-15T09:31:50;15.98;;;6.90;;
46447;SDS011;32145;50.390;30.778;2024-01-15T09:34:46;14.40;;;7.45;;
46447;SDS011;32145;50.390;30.778;2024-01-15T09:37:42;19.30;;;10.50;;
46447;SDS011;32145;50.390;30.778;2024-01-15T09:40:40;15.18;;;8.73;;
46447;SDS011;32145;50.390;30.778;2024-01-15T09:43:38;16.08;;;9.82;;
46447;SDS011;32145;50.390;30.778;2024-01-15T09:46:33;14.18;;;7.45;;
46447;SDS011;32145;50.390;30.778;2024-01-15T09:49:29;13.68;;;7.30;;
46447;SDS011;32145;50.390;30.778;2024-01-15T09:52:23;10.98;;;6.57;;
46447;SDS011;32145;50.390;30.778;2024-01-15T09:55:19;12.52;;;6.95;;
46447;SDS011;32145;50.390;30.778;2024-01-15T09:58:15;13.57;;;7.53;;
46447;SDS011;32145;50.390;30.778;2024-01-15T10:01:13;13.43;;;6.65;;
46447;SDS011;32145;50.390;30.778;2024-01-15T10:04:09;10.10;;;5.97;;
46447;SDS011;32145;50.390;30.778;2024-01-15T10:07:05;9.02;;;5.22;;
46447;SDS011;32145;50.390;30.778;2024-01-15T10:10:04;12.65;;;6.53;;
46447;SDS011;32145;50.390;30.778;2024-01-15T10:13:01;14.50;;;6.35;;
46447;SDS011;32145;50.390;30.778;2024-01-15T10:15:55;12.57;;;7.07;;
46447;SDS011;32145;50.390;30.778;2024-01-15T10:18:51;11.20;;;6.63;;
46447;SDS011;32145;50.390;30.778;2024-01-15T10:21:48;13.52;;;7.20;;
46447;SDS011;32145;50.390;30.778;2024-01-15T10:24:44;12.68;;;6.50;;
46447;SDS011;32145;50.390;30.778;2024-01-15T10:27:41;12.07;;;6.85;;
46447;SDS011;32145;50.390;30.778;2024-01-15T10:30:38;11.00;;;6.70;;
46447;SDS011;32145;50.390;30.778;2024-01-15T10:33:34;11.45;;;6.07;;
46447;SDS011;32145;50.390;30.778;2024-01-15T10:36:32;12.13;;;6.43;;
46447;SDS011;32145;50.390;30.778;2024-01-15T10:39:28;15.63;;;10.75;;
46447;SDS011;32145;50.390;30.778;2024-01-15T10:42:25;12.35;;;7.50;;
46447;SDS011;32145;50.390;30.778;2024-01-15T10:45:22;24.25;;;12.20;;
46447;SDS011;32145;50.390;30.778;2024-01-15T10:48:17;19.90;;;8.82;;
46447;SDS011;32145;50.390;30.778;2024-01-15T10:51:13;15.32;;;8.43;;
46447;SDS011;32145;50.390;30.778;2024-01-15T10:54:09;15.48;;;8.63;;
46447;SDS011;32145;50.390;30.778;2024-01-15T10:57:06;14.53;;;7.93;;
46447;SDS011;32145;50.390;30.778;2024-01-15T11:00:01;15.60;;;9.82;;
46447;SDS011;32145;50.390;30.778;2024-01-15T11:02:58;14.07;;;7.18;;
46447;SDS011;32145;50.390;30.778;2024-01-15T11:05:57;12.98;;;7.40;;
46447;SDS011;32145;50.390;30.778;2024-01-15T11:08:55;12.13;;;6.50;;
46447;SDS011;32145;50.390;30.778;2024-01-15T11:12:06;12.48;;;7.22;;
46447;SDS011;32145;50.390;30.778;2024-01-15T11:17:59;13.27;;;7.43;;
46447;SDS011;32145;50.390;30.778;2024-01-15T11:24:32;14.32;;;8.02;;
46447;SDS011;32145;50.390;30.778;2024-01-15T11:27:40;13.25;;;7.65;;
46447;SDS011;32145;50.390;30.778;2024-01-15T11:30:35;13.23;;;7.28;;
46447;SDS011;32145;50.390;30.778;2024-01-15T11:33:32;11.75;;;7.15;;
46447;SDS011;32145;50.390;30.778;2024-01-15T11:39:55;13.70;;;7.60;;
46447;SDS011;32145;50.390;30.778;2024-01-15T11:42:58;12.35;;;6.93;;
46447;SDS011;32145;50.390;30.778;2024-01-15T11:45:55;12.88;;;7.80;;
46447;SDS011;32145;50.390;30.778;2024-01-15T11:48:51;10.70;;;6.55;;
46447;SDS011;32145;50.390;30.778;2024-01-15T11:51:59;13.45;;;7.43;;
46447;SDS011;32145;50.390;30.778;2024-01-15T11:55:00;11.77;;;7.05;;
46447;SDS011;32145;50.390;30.778;2024-01-15T11:58:04;12.55;;;7.05;;
46447;SDS011;32145;50.390;30.778;2024-01-15T12:01:03;13.07;;;7.32;;
46447;SDS011;32145;50.390;30.778;2024-01-15T12:03:57;12.73;;;6.90;;
46447;SDS011;32145;50.390;30.778;2024-01-15T12:06:52;12.60;;;7.82;;
46447;SDS011;32145;50.390;30.778;2024-01-15T12:09:48;13.80;;;8.20;;
46447;SDS011;32145;50.390;30.778;2024-01-15T12:16:01;16.52;;;8.30;;
46447;SDS011;32145;50.390;30.778;2024-01-15T12:18:57;14.98;;;8.38;;
46447;SDS011;32145;50.390;30.778;2024-01-15T12:21:54;15.40;;;8.75;;
46447;SDS011;32145;50.390;30.778;2024-01-15T12:24:50;14.77;;;8.10;;
46447;SDS011;32145;50.390;30.778;2024-01-15T12:27:47;16.38;;;8.77;;
46447;SDS011;32145;50.390;30.778;2024-01-15T12:30:46;14.98;;;9.05;;
46447;SDS011;32145;50.390;30.778;2024-01-15T12:33:41;15.13;;;8.77;;
46447;SDS011;32145;50.390;30.778;2024-01-15T12:36:37;15.15;;;8.93;;
46447;SDS011;32145;50.390;30.778;2024-01-15T12:39:35;15.70;;;9.30;;
46447;SDS011;32145;50.390;30.778;2024-01-15T12:42:31;16.55;;;9.18;;
46447;SDS011;32145;50.390;30.778;2024-01-15T12:45:28;15.43;;;9.23;;
46447;SDS011;32145;50.390;30.778;2024-01-15T12:48:26;18.13;;;9.23;;
46447;SDS011;32145;50.390;30.778;2024-01-15T12:51:24;14.95;;;8.95;;
46447;SDS011;32145;50.390;30.778;2024-01-15T12:54:18;16.63;;;8.80;;
46447;SDS011;32145;50.390;30.778;2024-01-15T12:57:13;17.27;;;8.98;;
46447;SDS011;32145;50.390;30.778;2024-01-15T13:00:07;20.85;;;9.93;;
46447;SDS011;32145;50.390;30.778;2024-01-15T13:03:02;16.95;;;8.88;;
46447;SDS011;32145;50.390;30.778;2024-01-15T13:05:58;16.80;;;8.93;;
46447;SDS011;32145;50.390;30.778;2024-01-15T13:08:53;18.88;;;9.40;;
46447;SDS011;32145;50.390;30.778;2024-01-15T13:11:47;17.15;;;9.55;;
46447;SDS011;32145;50.390;30.778;2024-01-15T13:14:41;18.42;;;9.73;;
46447;SDS011;32145;50.390;30.778;2024-01-15T13:17:38;17.17;;;9.90;;
46447;SDS011;32145;50.390;30.778;2024-01-15T13:20:34;17.73;;;9.75;;
46447;SDS011;32145;50.390;30.778;2024-01-15T13:23:31;17.88;;;9.82;;
46447;SDS011;32145;50.390;30.778;2024-01-15T13:26:28;20.85;;;11.27;;
46447;SDS011;32145;50.390;30.778;2024-01-15T13:29:24;17.65;;;9.68;;
46447;SDS011;32145;50.390;30.778;2024-01-15T13:32:21;18.42;;;9.77;;
46447;SDS011;32145;50.390;30.778;2024-01-15T13:35:17;17.30;;;10.02;;
46447;SDS011;32145;50.390;30.778;2024-01-15T13:38:14;20.40;;;9.73;;
46447;SDS011;32145;50.390;30.778;2024-01-15T13:41:11;17.05;;;9.32;;
46447;SDS011;32145;50.390;30.778;2024-01-15T13:44:08;19.92;;;10.10;;
46447;SDS011;32145;50.390;30.778;2024-01-15T13:47:04;17.60;;;9.75;;
46447;SDS011;32145;50.390;30.778;2024-01-15T13:49:59;18.35;;;8.90;;
46447;SDS011;32145;50.390;30.778;2024-01-15T13:52:53;20.83;;;10.82;;
46447;SDS011;32145;50.390;30.778;2024-01-15T13:55:47;18.25;;;9.80;;
46447;SDS011;32145;50.390;30.778;2024-01-15T13:58:42;17.33;;;9.43;;
46447;SDS011;32145;50.390;30.778;2024-01-15T14:01:37;17.55;;;9.30;;
46447;SDS011;32145;50.390;30.778;2024-01-15T14:04:31;19.40;;;9.52;;
46447;SDS011;32145;50.390;30.778;2024-01-15T14:07:25;19.27;;;10.15;;
46447;SDS011;32145;50.390;30.778;2024-01-15T14:10:20;18.92;;;10.10;;
46447;SDS011;32145;50.390;30.778;2024-01-15T14:13:14;19.70;;;9.98;;
46447;SDS011;32145;50.390;30.778;2024-01-15T14:16:10;18.45;;;10.43;;
46447;SDS011;32145;50.390;30.778;2024-01-15T14:19:01;17.05;;;9.30;;
46447;SDS011;32145;50.390;30.778;2024-01-15T14:21:55;18.88;;;10.00;;
46447;SDS011;32145;50.390;30.778;2024-01-15T14:24:49;18.90;;;10.10;;
46447;SDS011;32145;50.390;30.778;2024-01-15T14:27:43;21.20;;;10.27;;
46447;SDS011;32145;50.390;30.778;2024-01-15T14:30:38;21.73;;;10.52;;
46447;SDS011;32145;50.390;30.778;2024-01-15T14:33:33;19.38;;;9.43;;
46447;SDS011;32145;50.390;30.778;2024-01-15T14:36:30;23.40;;;10.55;;
46447;SDS011;32145;50.390;30.778;2024-01-15T14:39:26;21.27;;;9.57;;
46447;SDS011;32145;50.390;30.778;2024-01-15T14:42:22;23.25;;;9.93;;
46447;SDS011;32145;50.390;30.778;2024-01-15T14:45:19;22.35;;;10.60;;
46447;SDS011;32145;50.390;30.778;2024-01-15T14:48:15;24.58;;;11.15;;
46447;SDS011;32145;50.390;30.778;2024-01-15T14:51:13;16.83;;;9.10;;
46447;SDS011;32145;50.390;30.778;2024-01-15T14:54:09;21.73;;;10.52;;
46447;SDS011;32145;50.390;30.778;2024-01-15T14:57:06;20.30;;;11.38;;
46447;SDS011;32145;50.390;30.778;2024-01-15T15:00:02;21.80;;;11.90;;
46447;SDS011;32145;50.390;30.778;2024-01-15T15:02:59;20.73;;;10.38;;
46447;SDS011;32145;50.390;30.778;2024-01-15T15:05:56;20.75;;;10.43;;
46447;SDS011;32145;50.390;30.778;2024-01-15T15:08:53;22.92;;;10.82;;
46447;SDS011;32145;50.390;30.778;2024-01-15T15:11:50;19.45;;;9.70;;
46447;SDS011;32145;50.390;30.778;2024-01-15T15:14:46;21.73;;;10.55;;
46447;SDS011;32145;50.390;30.778;2024-01-15T15:17:42;20.52;;;10.05;;
46447;SDS011;32145;50.390;30.778;2024-01-15T15:20:38;19.52;;;10.27;;
46447;SDS011;32145;50.390;30.778;2024-01-15T15:23:35;19.95;;;10.63;;
46447;SDS011;32145;50.390;30.778;2024-01-15T15:26:30;19.67;;;10.20;;
46447;SDS011;32145;50.390;30.778;2024-01-15T15:29:25;20.45;;;11.13;;
46447;SDS011;32145;50.390;30.778;2024-01-15T15:32:19;17.15;;;9.85;;
46447;SDS011;32145;50.390;30.778;2024-01-15T15:35:13;25.65;;;12.20;;
46447;SDS011;32145;50.390;30.778;2024-01-15T15:38:10;20.92;;;11.57;;
46447;SDS011;32145;50.390;30.778;2024-01-15T15:41:06;60.90;;;29.20;;
46447;SDS011;32145;50.390;30.778;2024-01-15T15:44:03;42.67;;;23.42;;
46447;SDS011;32145;50.390;30.778;2024-01-15T15:47:00;22.83;;;13.60;;
46447;SDS011;32145;50.390;30.778;2024-01-15T15:49:56;22.42;;;12.38;;
46447;SDS011;32145;50.390;30.778;2024-01-15T15:52:54;22.63;;;11.48;;
46447;SDS011;32145;50.390;30.778;2024-01-15T15:55:50;25.35;;;12.13;;
46447;SDS011;32145;50.390;30.778;2024-01-15T15:58:46;68.00;;;23.70;;
46447;SDS011;32145;50.390;30.778;2024-01-15T16:01:41;173.82;;;53.50;;
46447;SDS011;32145;50.390;30.778;2024-01-15T16:04:36;80.20;;;30.10;;
46447;SDS011;32145;50.390;30.778;2024-01-15T16:07:30;87.25;;;32.17;;
46447;SDS011;32145;50.390;30.778;2024-01-15T16:10:24;72.30;;;28.58;;
46447;SDS011;32145;50.390;30.778;2024-01-15T16:13:18;33.83;;;15.73;;
46447;SDS011;32145;50.390;30.778;2024-01-15T16:16:13;56.25;;;21.95;;
46447;SDS011;32145;50.390;30.778;2024-01-15T16:19:08;93.25;;;29.75;;
46447;SDS011;32145;50.390;30.778;2024-01-15T16:22:03;64.38;;;22.70;;
46447;SDS011;32145;50.390;30.778;2024-01-15T16:24:57;36.70;;;15.38;;
46447;SDS011;32145;50.390;30.778;2024-01-15T16:27:52;53.75;;;19.13;;
46447;SDS011;32145;50.390;30.778;2024-01-15T16:30:46;63.90;;;20.13;;
46447;SDS011;32145;50.390;30.778;2024-01-15T16:33:40;52.42;;;21.70;;
46447;SDS011;32145;50.390;30.778;2024-01-15T16:36:36;31.65;;;16.13;;
46447;SDS011;32145;50.390;30.778;2024-01-15T16:39:32;64.40;;;24.08;;
46447;SDS011;32145;50.390;30.778;2024-01-15T16:42:28;76.57;;;27.10;;
46447;SDS011;32145;50.390;30.778;2024-01-15T16:45:25;68.90;;;23.25;;
46447;SDS011;32145;50.390;30.778;2024-01-15T16:48:21;68.43;;;31.05;;
46447;SDS011;32145;50.390;30.778;2024-01-15T16:51:17;28.80;;;14.15;;
46447;SDS011;32145;50.390;30.778;2024-01-15T16:54:15;30.70;;;15.80;;
46447;SDS011;32145;50.390;30.778;2024-01-15T16:57:11;81.63;;;27.33;;
46447;SDS011;32145;50.390;30.778;2024-01-15T17:00:08;25.13;;;12.55;;
46447;SDS011;32145;50.390;30.778;2024-01-15T17:03:05;27.05;;;13.68;;
46447;SDS011;32145;50.390;30.778;2024-01-15T17:06:01;46.47;;;18.98;;
46447;SDS011;32145;50.390;30.778;2024-01-15T17:08:58;39.67;;;17.95;;
46447;SDS011;32145;50.390;30.778;2024-01-15T17:11:55;31.92;;;15.40;;
46447;SDS011;32145;50.390;30.778;2024-01-15T17:14:52;21.80;;;12.40;;
46447;SDS011;32145;50.390;30.778;2024-01-15T17:17:48;23.20;;;12.80;;